createdAt,value
2023-05-01T00:02:05.588Z,2.85
2023-05-01T00:04:34.924Z,3.53
2023-05-01T00:07:02.477Z,3.70
2023-05-01T00:09:30.094Z,3.35
2023-05-01T00:11:57.607Z,3.55
2023-05-01T00:14:25.166Z,3.50
2023-05-01T00:16:52.907Z,3.20
2023-05-01T00:19:20.586Z,3.38
2023-05-01T00:21:48.719Z,3.72
2023-05-01T00:24:17.322Z,3.40
2023-05-01T00:26:45.185Z,3.60
2023-05-01T00:29:12.911Z,3.65
2023-05-01T00:31:42.233Z,3.50
2023-05-01T00:34:11.371Z,3.28
2023-05-01T00:36:38.937Z,3.60
2023-05-01T00:39:08.030Z,3.50
2023-05-01T00:41:36.116Z,3.45
2023-05-01T00:44:03.756Z,3.30
2023-05-01T00:46:33.162Z,3.70
2023-05-01T00:49:01.371Z,3.28
2023-05-01T00:51:30.011Z,3.58
2023-05-01T00:54:00.323Z,3.45
2023-05-01T00:56:27.975Z,3.45
2023-05-01T00:58:56.717Z,3.10
2023-05-01T01:01:24.561Z,3.85
2023-05-01T01:03:52.250Z,3.38
2023-05-01T01:06:31.362Z,3.90
2023-05-01T01:09:14.199Z,3.35
2023-05-01T01:11:54.165Z,3.67
2023-05-01T01:14:27.734Z,3.15
2023-05-01T01:16:58.110Z,3.55
2023-05-01T01:19:28.703Z,3.47
2023-05-01T01:21:59.615Z,4.30
2023-05-01T01:24:59.642Z,3.88
2023-05-01T01:27:36.490Z,3.70
2023-05-01T01:30:07.029Z,4.10
2023-05-01T01:32:34.569Z,3.85
2023-05-01T01:35:04.618Z,4.10
2023-05-01T01:37:50.400Z,3.63
2023-05-01T01:40:19.526Z,3.63
2023-05-01T01:42:50.177Z,3.85
2023-05-01T01:45:19.894Z,4.18
2023-05-01T01:47:48.912Z,4.28
2023-05-01T01:50:17.759Z,4.30
2023-05-01T01:52:47.380Z,3.60
2023-05-01T01:55:16.034Z,4.60
2023-05-01T01:57:45.573Z,4.03
2023-05-01T02:00:14.253Z,4.38
2023-05-01T02:02:46.198Z,3.83
2023-05-01T02:05:17.356Z,4.15
2023-05-01T02:07:47.608Z,4.28
2023-05-01T02:10:16.133Z,4.55
2023-05-01T02:12:45.272Z,3.90
2023-05-01T02:15:14.224Z,4.15
2023-05-01T02:17:42.040Z,4.55
2023-05-01T02:20:12.619Z,4.25
2023-05-01T02:22:45.774Z,4.65
2023-05-01T02:25:13.912Z,4.30
2023-05-01T02:27:44.527Z,4.00
2023-05-01T02:30:12.389Z,4.40
2023-05-01T02:32:40.018Z,4.53
2023-05-01T02:35:07.696Z,4.55
2023-05-01T02:37:35.339Z,4.90
2023-05-01T02:40:04.639Z,4.30
2023-05-01T02:42:33.038Z,4.65
2023-05-01T02:45:06.379Z,4.45
2023-05-01T02:47:36.083Z,4.55
2023-05-01T02:50:04.754Z,4.50
2023-05-01T02:52:32.721Z,5.00
2023-05-01T02:55:19.143Z,4.60
2023-05-01T02:57:47.076Z,4.38
2023-05-01T03:00:15.090Z,4.60
2023-05-01T03:02:42.936Z,4.78
2023-05-01T03:05:10.626Z,5.07
2023-05-01T03:07:38.174Z,5.20
2023-05-01T03:10:06.534Z,4.90
2023-05-01T03:12:34.401Z,4.95
2023-05-01T03:15:02.143Z,4.55
2023-05-01T03:17:30.979Z,5.13
2023-05-01T03:19:58.668Z,4.95
2023-05-01T03:22:29.527Z,5.10
2023-05-01T03:24:57.061Z,4.60
2023-05-01T03:27:24.606Z,5.40
2023-05-01T03:29:52.831Z,5.97
2023-05-01T03:32:20.651Z,4.88
2023-05-01T03:34:49.235Z,5.15
2023-05-01T03:37:18.262Z,5.18
2023-05-01T03:39:46.534Z,5.05
2023-05-01T03:42:40.334Z,5.50
2023-05-01T03:45:14.997Z,4.80
2023-05-01T03:47:42.572Z,5.45
2023-05-01T03:50:11.110Z,5.55
2023-05-01T03:52:41.448Z,5.35
2023-05-01T03:55:09.344Z,5.47
2023-05-01T03:57:41.832Z,5.97
2023-05-01T04:00:11.672Z,4.97
2023-05-01T04:02:46.683Z,5.13
2023-05-01T04:05:22.043Z,5.60
2023-05-01T04:07:55.028Z,5.53
2023-05-01T04:10:22.765Z,5.03
2023-05-01T04:12:57.327Z,5.38
2023-05-01T04:15:25.204Z,5.30
2023-05-01T04:17:55.720Z,5.15
2023-05-01T04:20:23.731Z,5.43
2023-05-01T04:22:51.862Z,4.95
2023-05-01T04:25:19.837Z,5.30
2023-05-01T04:27:49.934Z,5.05
2023-05-01T04:30:17.533Z,5.30
2023-05-01T04:32:45.609Z,5.10
2023-05-01T04:35:13.497Z,5.38
2023-05-01T04:37:44.041Z,5.88
2023-05-01T04:40:12.093Z,6.05
2023-05-01T04:42:40.690Z,5.90
2023-05-01T04:45:11.359Z,5.65
2023-05-01T04:47:39.121Z,5.80
2023-05-01T04:50:07.785Z,5.78
2023-05-01T04:52:35.878Z,5.43
2023-05-01T04:55:04.740Z,5.60
2023-05-01T04:57:35.969Z,6.22
2023-05-01T05:00:07.824Z,5.30
2023-05-01T05:02:41.696Z,5.10
2023-05-01T05:05:09.718Z,5.68
2023-05-01T05:07:37.353Z,5.55
2023-05-01T05:10:31.916Z,5.85
2023-05-01T05:13:19.656Z,5.40
2023-05-01T05:18:22.402Z,5.47
2023-05-01T05:20:51.299Z,5.20
2023-05-01T05:23:19.210Z,5.13
2023-05-01T05:25:46.736Z,5.00
2023-05-01T05:28:14.257Z,5.07
2023-05-01T05:30:43.231Z,5.00
2023-05-01T05:33:14.979Z,5.13
2023-05-01T05:35:43.245Z,4.78
2023-05-01T05:38:11.153Z,4.80
2023-05-01T05:40:41.773Z,5.40
2023-05-01T05:43:10.620Z,4.70
2023-05-01T05:45:38.643Z,5.03
2023-05-01T05:48:06.875Z,4.75
2023-05-01T05:50:39.784Z,5.20
2023-05-01T05:53:09.035Z,5.20
2023-05-01T05:55:37.759Z,4.53
2023-05-01T05:58:07.182Z,4.53
2023-05-01T06:00:36.066Z,5.00
2023-05-01T06:03:07.031Z,4.82
2023-05-01T06:05:36.141Z,4.72
2023-05-01T06:08:04.023Z,5.22
2023-05-01T06:10:31.896Z,5.28
2023-05-01T06:13:10.265Z,4.35
2023-05-01T06:15:43.607Z,4.63
2023-05-01T06:18:12.138Z,4.53
2023-05-01T06:20:40.002Z,4.65
2023-05-01T06:23:09.589Z,4.80
2023-05-01T06:25:45.846Z,4.55
2023-05-01T06:28:13.466Z,4.65
2023-05-01T06:30:41.047Z,4.50
2023-05-01T06:33:10.245Z,4.15
2023-05-01T06:35:42.132Z,4.43
2023-05-01T06:38:09.683Z,3.85
2023-05-01T06:40:37.306Z,4.07
2023-05-01T06:43:05.323Z,4.80
2023-05-01T06:45:32.985Z,4.32
2023-05-01T06:48:00.632Z,4.30
2023-05-01T06:50:28.901Z,4.25
2023-05-01T06:52:56.432Z,4.80
2023-05-01T06:55:23.987Z,4.10
2023-05-01T06:57:51.525Z,4.50
2023-05-01T07:00:19.899Z,4.40
2023-05-01T07:02:47.497Z,4.35
2023-05-01T07:05:15.279Z,4.07
2023-05-01T07:07:50.446Z,4.18
2023-05-01T07:10:25.915Z,4.28
2023-05-01T07:12:53.430Z,4.40
2023-05-01T07:15:21.086Z,4.22
2023-05-01T07:17:48.637Z,4.45
2023-05-01T07:20:16.990Z,4.10
2023-05-01T07:22:44.808Z,4.13
2023-05-01T07:25:12.441Z,5.05
2023-05-01T07:27:41.664Z,4.57
2023-05-01T07:30:10.223Z,4.40
2023-05-01T07:32:38.214Z,4.20
2023-05-01T07:35:06.000Z,4.47
2023-05-01T07:37:33.764Z,4.68
2023-05-01T07:40:01.356Z,3.92
2023-05-01T07:42:28.908Z,4.32
2023-05-01T07:44:56.439Z,4.38
2023-05-01T07:47:24.151Z,4.50
2023-05-01T07:49:52.214Z,4.35
2023-05-01T07:52:19.873Z,4.47
2023-05-01T07:54:51.230Z,3.92
2023-05-01T07:57:22.182Z,4.60
2023-05-01T07:59:49.748Z,5.03
2023-05-01T08:02:18.169Z,4.10
2023-05-01T08:04:47.889Z,3.88
2023-05-01T08:07:15.657Z,4.88
2023-05-01T08:09:43.275Z,4.18
2023-05-01T08:12:10.806Z,4.30
2023-05-01T08:14:38.377Z,4.38
2023-05-01T08:17:05.910Z,4.60
2023-05-01T08:19:33.960Z,4.10
2023-05-01T08:22:01.491Z,4.20
2023-05-01T08:24:30.044Z,4.32
2023-05-01T08:26:58.197Z,4.80
2023-05-01T08:29:25.769Z,4.35
2023-05-01T08:31:53.435Z,4.60
2023-05-01T08:34:21.070Z,4.93
2023-05-01T08:36:48.773Z,4.97
2023-05-01T08:39:16.445Z,4.88
2023-05-01T08:41:48.385Z,5.13
2023-05-01T08:46:49.540Z,5.00
2023-05-01T08:49:18.594Z,4.55
2023-05-01T08:51:50.005Z,5.10
2023-05-01T08:54:18.301Z,4.72
2023-05-01T08:56:47.312Z,4.72
2023-05-01T08:59:15.112Z,4.72
2023-05-01T09:01:43.526Z,5.20
2023-05-01T09:04:12.062Z,4.88
2023-05-01T09:06:40.229Z,5.00
2023-05-01T09:09:08.138Z,4.75
2023-05-01T09:11:36.463Z,4.82
2023-05-01T09:14:05.672Z,4.80
2023-05-01T09:16:33.500Z,5.13
2023-05-01T09:19:01.352Z,4.78
2023-05-01T09:21:31.607Z,5.07
2023-05-01T09:23:59.199Z,5.22
2023-05-01T09:26:26.814Z,5.65
2023-05-01T09:28:58.048Z,6.03
2023-05-01T09:31:28.812Z,5.43
2023-05-01T09:33:56.576Z,6.18
2023-05-01T09:36:25.064Z,5.70
2023-05-01T09:38:52.657Z,6.18
2023-05-01T09:41:23.930Z,5.80
2023-05-01T09:43:52.226Z,6.38
2023-05-01T09:46:20.510Z,6.10
2023-05-01T09:48:57.178Z,7.00
2023-05-01T09:51:29.191Z,6.45
2023-05-01T09:54:01.371Z,7.57
2023-05-01T09:56:29.936Z,7.68
2023-05-01T09:58:58.589Z,7.60
2023-05-01T10:01:42.690Z,7.95
2023-05-01T10:04:10.555Z,7.00
2023-05-01T10:06:38.766Z,8.93
2023-05-01T10:09:09.370Z,7.63
2023-05-01T10:11:49.184Z,7.70
2023-05-01T10:14:17.108Z,8.65
2023-05-01T10:16:46.064Z,8.35
2023-05-01T10:19:14.985Z,8.13
2023-05-01T10:21:42.616Z,8.50
2023-05-01T10:24:11.301Z,7.78
2023-05-01T10:26:38.959Z,8.63
2023-05-01T10:29:06.705Z,8.30
2023-05-01T10:31:35.569Z,8.30
2023-05-01T10:34:03.553Z,9.25
2023-05-01T10:36:39.212Z,9.35
2023-05-01T10:39:07.292Z,8.85
2023-05-01T10:41:54.354Z,9.30
2023-05-01T10:44:23.615Z,8.70
2023-05-01T10:46:51.376Z,9.32
2023-05-01T10:49:19.377Z,9.57
2023-05-01T10:51:59.400Z,10.30
2023-05-01T10:54:27.779Z,10.52
2023-05-01T10:56:56.290Z,9.65
2023-05-01T10:59:23.895Z,9.30
2023-05-01T11:01:52.086Z,9.43
2023-05-01T11:04:20.016Z,10.48
2023-05-01T11:07:05.646Z,11.02
2023-05-01T11:09:43.689Z,10.70
2023-05-01T11:12:12.784Z,11.48
2023-05-01T11:14:57.316Z,10.98
2023-05-01T11:17:43.540Z,10.77
2023-05-01T11:20:12.497Z,10.75
2023-05-01T11:22:49.942Z,11.00
2023-05-01T11:25:21.893Z,12.05
2023-05-01T11:27:50.337Z,12.45
2023-05-01T11:30:18.176Z,12.70
2023-05-01T11:32:47.478Z,10.90
2023-05-01T11:35:19.883Z,11.80
2023-05-01T11:37:47.985Z,11.25
2023-05-01T11:40:28.675Z,11.80
2023-05-01T11:43:23.346Z,12.07
2023-05-01T11:45:54.421Z,12.75
2023-05-01T11:48:22.377Z,12.55
2023-05-01T11:50:50.120Z,12.25
2023-05-01T11:53:18.464Z,12.48
2023-05-01T11:55:46.351Z,12.00
2023-05-01T11:58:13.942Z,12.00
2023-05-01T12:00:43.080Z,12.10
2023-05-01T12:03:11.924Z,11.88
2023-05-01T12:05:42.172Z,12.52
2023-05-01T12:08:09.870Z,12.52
2023-05-01T12:10:38.077Z,11.65
2023-05-01T12:13:06.635Z,12.18
2023-05-01T12:15:37.703Z,11.95
2023-05-01T12:18:08.954Z,12.60
2023-05-01T12:20:37.923Z,11.82
2023-05-01T12:23:10.512Z,11.18
2023-05-01T12:25:39.348Z,10.60
2023-05-01T12:28:19.402Z,11.02
2023-05-01T12:30:48.892Z,10.25
2023-05-01T12:33:17.523Z,10.75
2023-05-01T12:35:46.581Z,10.75
2023-05-01T12:38:18.243Z,10.65
2023-05-01T12:40:59.454Z,9.90
2023-05-01T12:43:34.458Z,9.77
2023-05-01T12:46:02.770Z,10.55
2023-05-01T12:48:31.039Z,9.80
2023-05-01T12:50:58.680Z,9.57
2023-05-01T12:53:27.073Z,10.32
2023-05-01T12:55:56.165Z,10.48
2023-05-01T12:58:24.121Z,10.73
2023-05-01T13:00:53.487Z,11.18
2023-05-01T13:03:24.020Z,10.45
2023-05-01T13:05:59.571Z,10.40
2023-05-01T13:08:28.008Z,9.75
2023-05-01T13:10:57.305Z,9.27
2023-05-01T13:13:29.114Z,8.70
2023-05-01T13:16:06.330Z,8.77
2023-05-01T13:18:34.558Z,9.30
2023-05-01T13:21:09.952Z,8.73
2023-05-01T13:23:38.873Z,8.90
2023-05-01T13:26:07.438Z,9.18
2023-05-01T13:28:35.732Z,8.98
2023-05-01T13:31:03.352Z,9.27
2023-05-01T13:33:32.561Z,9.07
2023-05-01T13:36:00.866Z,8.77
2023-05-01T13:38:31.311Z,8.07
2023-05-01T13:40:58.931Z,7.68
2023-05-01T13:43:26.723Z,8.30
2023-05-01T13:45:58.507Z,7.82
2023-05-01T13:50:53.837Z,7.47
2023-05-01T13:53:21.428Z,7.28
2023-05-01T13:55:48.958Z,7.70
2023-05-01T13:58:16.558Z,7.53
2023-05-01T14:00:45.451Z,7.35
2023-05-01T14:03:13.544Z,6.63
2023-05-01T14:05:41.317Z,7.85
2023-05-01T14:08:09.372Z,7.65
2023-05-01T14:10:36.947Z,7.85
2023-05-01T14:13:05.235Z,7.90
2023-05-01T14:15:35.956Z,8.27
2023-05-01T14:18:07.123Z,8.48
2023-05-01T14:20:34.684Z,7.97
2023-05-01T14:23:02.210Z,7.32
2023-05-01T14:25:31.374Z,7.88
2023-05-01T14:28:00.707Z,7.95
2023-05-01T14:30:29.976Z,7.72
2023-05-01T14:32:57.585Z,7.53
2023-05-01T14:35:25.632Z,7.07
2023-05-01T14:37:53.373Z,7.70
2023-05-01T14:40:26.771Z,7.57
2023-05-01T14:42:55.151Z,6.85
2023-05-01T14:45:22.976Z,6.65
2023-05-01T14:47:50.678Z,6.93
2023-05-01T14:50:21.975Z,6.90
2023-05-01T14:52:56.382Z,6.68
2023-05-01T14:55:29.013Z,6.40
2023-05-01T14:57:57.035Z,5.93
2023-05-01T15:00:24.994Z,5.40
2023-05-01T15:02:52.610Z,5.65
2023-05-01T15:05:20.409Z,5.93
2023-05-01T15:07:48.047Z,5.97
2023-05-01T15:10:15.924Z,5.72
2023-05-01T15:12:43.467Z,5.85
2023-05-01T15:15:11.375Z,6.13
2023-05-01T15:17:39.021Z,5.57
2023-05-01T15:20:07.097Z,5.60
2023-05-01T15:22:34.670Z,5.68
2023-05-01T15:25:02.283Z,5.15
2023-05-01T15:27:29.808Z,5.10
2023-05-01T15:29:57.623Z,5.30
2023-05-01T15:32:25.253Z,6.45
2023-05-01T15:34:56.703Z,5.63
2023-05-01T15:37:24.620Z,5.78
2023-05-01T15:39:52.178Z,6.13
2023-05-01T15:42:19.907Z,6.00
2023-05-01T15:44:48.326Z,6.50
2023-05-01T15:47:16.300Z,6.65
2023-05-01T15:49:44.066Z,6.30
2023-05-01T15:52:11.626Z,5.82
2023-05-01T15:54:39.134Z,6.63
2023-05-01T15:57:07.554Z,5.95
2023-05-01T15:59:35.118Z,6.00
2023-05-01T16:02:02.662Z,6.47
2023-05-01T16:04:30.392Z,6.50
2023-05-01T16:06:57.925Z,6.35
2023-05-01T16:09:30.409Z,6.57
2023-05-01T16:11:59.316Z,6.68
2023-05-01T16:14:27.045Z,6.20
2023-05-01T16:16:54.735Z,5.80
2023-05-01T16:19:22.458Z,6.50
2023-05-01T16:21:50.229Z,6.65
2023-05-01T16:24:17.984Z,6.25
2023-05-01T16:26:45.618Z,5.43
2023-05-01T16:29:13.185Z,6.07
2023-05-01T16:31:47.628Z,5.07
2023-05-01T16:34:17.903Z,5.53
2023-05-01T16:36:46.874Z,5.00
2023-05-01T16:39:16.299Z,5.53
2023-05-01T16:41:47.822Z,5.40
2023-05-01T16:44:18.962Z,5.63
2023-05-01T16:46:52.731Z,6.10
2023-05-01T16:49:20.803Z,6.10
2023-05-01T16:51:48.525Z,6.22
2023-05-01T16:54:16.446Z,6.90
2023-05-01T16:56:44.235Z,6.82
2023-05-01T16:59:11.945Z,7.03
2023-05-01T17:01:39.597Z,7.07
2023-05-01T17:04:07.449Z,7.55
2023-05-01T17:06:35.347Z,8.20
2023-05-01T17:09:03.129Z,8.30
2023-05-01T17:11:31.947Z,7.88
2023-05-01T17:13:59.764Z,8.90
2023-05-01T17:16:27.966Z,8.70
2023-05-01T17:18:55.556Z,8.13
2023-05-01T17:21:24.622Z,8.98
2023-05-01T17:23:52.241Z,8.73
2023-05-01T17:26:19.776Z,9.15
2023-05-01T17:28:49.091Z,8.95
2023-05-01T17:31:18.384Z,9.98
2023-05-01T17:33:47.433Z,9.32
2023-05-01T17:36:15.079Z,9.60
2023-05-01T17:38:42.655Z,9.18
2023-05-01T17:41:10.502Z,9.57
2023-05-01T17:43:38.070Z,8.13
2023-05-01T17:46:06.654Z,9.07
2023-05-01T17:48:34.266Z,9.32
2023-05-01T17:51:02.149Z,9.35
2023-05-01T17:53:29.868Z,9.48
2023-05-01T17:55:58.334Z,9.52
2023-05-01T17:58:25.884Z,9.35
2023-05-01T18:00:55.114Z,9.70
2023-05-01T18:03:23.961Z,9.02
2023-05-01T18:05:51.892Z,9.05
2023-05-01T18:08:19.426Z,9.98
2023-05-01T18:10:46.974Z,8.68
2023-05-01T18:13:14.652Z,8.73
2023-05-01T18:15:42.182Z,9.38
2023-05-01T18:18:09.980Z,9.00
2023-05-01T18:20:37.596Z,8.90
2023-05-01T18:23:05.151Z,8.88
2023-05-01T18:25:32.777Z,9.43
2023-05-01T18:28:00.389Z,8.73
2023-05-01T18:30:27.997Z,9.40
2023-05-01T18:32:55.628Z,9.20
2023-05-01T18:35:23.316Z,8.02
2023-05-01T18:37:51.582Z,9.07
2023-05-01T18:40:19.209Z,8.40
2023-05-01T18:42:47.047Z,7.70
2023-05-01T18:45:14.719Z,7.60
2023-05-01T18:47:42.385Z,8.18
2023-05-01T18:50:10.403Z,7.55
2023-05-01T18:52:38.126Z,7.53
2023-05-01T18:55:06.039Z,7.10
2023-05-01T18:57:33.618Z,7.28
2023-05-01T19:00:01.744Z,7.50
2023-05-01T19:02:29.510Z,5.97
2023-05-01T19:04:58.269Z,5.85
2023-05-01T19:07:26.742Z,6.50
2023-05-01T19:09:54.477Z,5.47
2023-05-01T19:12:22.151Z,4.50
2023-05-01T19:14:49.676Z,4.90
2023-05-01T19:17:17.219Z,4.85
2023-05-01T19:19:44.818Z,4.88
2023-05-01T19:22:12.363Z,4.22
2023-05-01T19:24:39.996Z,4.35
2023-05-01T19:27:07.525Z,4.38
2023-05-01T19:29:35.175Z,4.30
2023-05-01T19:32:03.144Z,4.53
2023-05-01T19:34:30.708Z,4.28
2023-05-01T19:37:00.129Z,4.43
2023-05-01T19:39:28.958Z,4.15
2023-05-01T19:41:56.564Z,3.85
2023-05-01T19:44:24.212Z,4.43
2023-05-01T19:46:51.780Z,5.85
2023-05-01T19:49:19.295Z,4.15
2023-05-01T19:51:46.809Z,4.03
2023-05-01T19:54:14.325Z,3.33
2023-05-01T19:56:41.917Z,3.58
2023-05-01T19:59:09.912Z,4.13
2023-05-01T20:01:38.826Z,3.25
2023-05-01T20:04:06.685Z,3.50
2023-05-01T20:06:34.405Z,3.05
2023-05-01T20:09:02.084Z,3.15
2023-05-01T20:11:29.629Z,3.40
2023-05-01T20:13:57.135Z,3.05
2023-05-01T20:16:24.923Z,3.22
2023-05-01T20:18:52.787Z,3.38
2023-05-01T20:21:20.390Z,3.35
2023-05-01T20:23:48.874Z,3.05
2023-05-01T20:26:17.568Z,4.15
2023-05-01T20:28:45.317Z,3.67
2023-05-01T20:31:13.740Z,3.25
2023-05-01T20:33:41.704Z,3.55
2023-05-01T20:36:09.271Z,3.08
2023-05-01T20:38:41.696Z,3.00
2023-05-01T20:41:09.701Z,2.78
2023-05-01T20:43:37.396Z,3.08
2023-05-01T20:46:04.966Z,2.63
2023-05-01T20:48:33.237Z,3.38
2023-05-01T20:51:00.808Z,2.95
2023-05-01T20:53:28.308Z,2.35
2023-05-01T20:55:55.853Z,2.47
2023-05-01T20:58:23.527Z,2.63
2023-05-01T21:00:53.936Z,2.67
2023-05-01T21:03:21.628Z,2.65
2023-05-01T21:05:49.418Z,2.80
2023-05-01T21:08:16.999Z,2.30
2023-05-01T21:10:44.530Z,2.35
2023-05-01T21:13:12.328Z,2.67
2023-05-01T21:15:42.950Z,2.47
2023-05-01T21:18:14.627Z,2.90
2023-05-01T21:20:45.374Z,2.53
2023-05-01T21:23:16.929Z,2.40
2023-05-01T21:25:44.792Z,2.72
2023-05-01T21:28:13.259Z,2.35
2023-05-01T21:30:41.399Z,2.40
2023-05-01T21:33:12.579Z,2.45
2023-05-01T21:35:41.982Z,2.53
2023-05-01T21:38:10.006Z,2.50
2023-05-01T21:40:41.656Z,2.83
2023-05-01T21:43:09.952Z,2.45
2023-05-01T21:45:41.195Z,2.42
2023-05-01T21:48:09.467Z,2.40
2023-05-01T21:50:38.162Z,2.30
2023-05-01T21:53:06.769Z,2.50
2023-05-01T21:55:34.536Z,2.50
2023-05-01T21:58:02.597Z,2.40
2023-05-01T22:00:30.639Z,2.80
2023-05-01T22:02:58.407Z,2.95
2023-05-01T22:05:27.944Z,3.00
2023-05-01T22:07:55.551Z,2.72
2023-05-01T22:10:23.124Z,2.42
2023-05-01T22:12:50.976Z,2.40
2023-05-01T22:15:18.629Z,2.55
2023-05-01T22:17:46.326Z,2.60
2023-05-01T22:20:14.106Z,2.78
2023-05-01T22:22:42.989Z,2.60
2023-05-01T22:25:11.829Z,2.80
2023-05-01T22:27:39.418Z,2.63
2023-05-01T22:30:07.452Z,2.63
2023-05-01T22:32:35.371Z,2.75
2023-05-01T22:35:03.793Z,2.33
2023-05-01T22:37:31.646Z,2.70
2023-05-01T22:39:59.593Z,2.83
2023-05-01T22:42:27.790Z,2.58
2023-05-01T22:44:55.293Z,2.78
2023-05-01T22:47:22.843Z,2.38
2023-05-01T22:49:50.429Z,2.58
2023-05-01T22:52:17.957Z,2.58
2023-05-01T22:54:45.521Z,2.75
2023-05-01T22:57:13.641Z,2.85
2023-05-01T22:59:41.173Z,2.85
2023-05-01T23:02:08.927Z,2.40
2023-05-01T23:04:36.693Z,2.40
2023-05-01T23:07:04.239Z,2.60
2023-05-01T23:09:32.352Z,2.83
2023-05-01T23:11:59.957Z,2.67
2023-05-01T23:14:27.479Z,3.05
2023-05-01T23:16:55.106Z,2.60
2023-05-01T23:19:24.695Z,2.85
2023-05-01T23:21:52.902Z,3.13
2023-05-01T23:24:21.162Z,2.92
2023-05-01T23:26:48.848Z,2.70
2023-05-01T23:29:16.876Z,2.63
2023-05-01T23:31:46.360Z,3.25
2023-05-01T23:34:16.131Z,2.97
2023-05-01T23:36:47.723Z,2.80
2023-05-01T23:39:16.324Z,2.78
2023-05-01T23:41:44.224Z,2.78
2023-05-01T23:44:11.892Z,3.20
2023-05-01T23:46:39.742Z,3.20
2023-05-01T23:49:07.475Z,3.03
2023-05-01T23:51:35.146Z,2.90
2023-05-01T23:54:04.219Z,2.80
2023-05-01T23:56:32.447Z,3.20
2023-05-01T23:59:00.124Z,2.95
